Terminal Aerodrome Forecast
Issued by NWS

Home | Current Version | Previous Version | Text Only | Print | Product List | Glossary On
Versions: 1 2 3 4 5 6 7 8 9 10 11 12 13 14 15 16 17 18 19 20 21 22 23 24 25 26 27 28 29
000
FTAK31 PAFA 182339
TAFAQT
TAF
PAQT 182339Z 1900/1924 04008KT 4SM -SN BR OVC030
     FM190600 08010KT 3SM BR SCT015 OVC025
     FM191400 07012KT 2SM BR FEW006 OVC012=

USA.gov is the U.S. government's official web portal to all federal, state and local government web resources and services.